createdAt,value
2022-09-11T00:02:50.567Z,5.22
2022-09-11T00:07:04.515Z,4.88
2022-09-11T00:11:20.353Z,4.53
2022-09-11T00:15:39.126Z,4.90
2022-09-11T00:19:55.408Z,4.78
2022-09-11T00:24:10.321Z,4.85
2022-09-11T00:28:25.896Z,4.93
2022-09-11T00:32:40.031Z,4.60
2022-09-11T00:36:55.122Z,4.75
2022-09-11T00:41:16.880Z,4.47
2022-09-11T00:45:32.227Z,4.60
2022-09-11T00:49:51.096Z,4.70
2022-09-11T00:54:07.341Z,4.90
2022-09-11T00:58:26.979Z,4.75
2022-09-11T01:02:43.196Z,4.97
2022-09-11T01:06:58.906Z,4.43
2022-09-11T01:11:32.617Z,4.73
2022-09-11T01:15:53.748Z,4.35
2022-09-11T01:20:26.445Z,4.53
2022-09-11T01:24:56.476Z,4.23
2022-09-11T01:29:19.350Z,4.22
2022-09-11T01:33:41.475Z,4.25
2022-09-11T01:38:03.338Z,4.33
2022-09-11T01:42:23.110Z,4.63
2022-09-11T01:46:42.932Z,4.43
2022-09-11T01:51:02.596Z,4.07
2022-09-11T01:55:20.716Z,4.80
2022-09-11T01:59:40.787Z,4.57
2022-09-11T02:04:02.050Z,5.00
2022-09-11T02:08:19.649Z,4.60
2022-09-11T02:12:42.049Z,5.28
2022-09-11T02:17:08.890Z,5.47
2022-09-11T02:21:25.704Z,4.87
2022-09-11T02:25:39.989Z,5.07
2022-09-11T02:29:54.837Z,4.90
2022-09-11T02:34:09.819Z,5.20
2022-09-11T02:38:34.273Z,5.63
2022-09-11T02:43:16.156Z,5.30
2022-09-11T02:47:42.545Z,5.90
2022-09-11T02:52:05.650Z,5.53
2022-09-11T02:56:29.857Z,5.70
2022-09-11T03:00:46.822Z,6.15
2022-09-11T03:05:01.522Z,5.90
2022-09-11T03:09:15.558Z,6.78
2022-09-11T03:13:32.426Z,6.32
2022-09-11T03:17:47.528Z,6.47
2022-09-11T03:22:03.053Z,6.87
2022-09-11T03:26:17.387Z,6.80
2022-09-11T03:30:36.355Z,7.55
2022-09-11T03:34:50.509Z,6.87
2022-09-11T03:39:04.754Z,7.35
2022-09-11T03:43:19.441Z,7.40
2022-09-11T03:47:34.982Z,7.43
2022-09-11T03:51:48.871Z,7.40
2022-09-11T03:56:04.021Z,7.15
2022-09-11T04:00:23.832Z,7.13
2022-09-11T04:04:43.055Z,7.53
2022-09-11T04:08:57.771Z,7.55
2022-09-11T04:13:12.058Z,7.72
2022-09-11T04:17:25.959Z,7.80
2022-09-11T04:21:42.563Z,8.05
2022-09-11T04:25:56.657Z,7.38
2022-09-11T04:30:11.526Z,7.53
2022-09-11T04:34:26.298Z,7.53
2022-09-11T04:38:41.913Z,7.53
2022-09-11T04:42:58.996Z,8.07
2022-09-11T04:47:12.822Z,7.83
2022-09-11T04:51:30.239Z,8.02
2022-09-11T04:55:46.580Z,7.90
2022-09-11T05:00:01.711Z,7.90
2022-09-11T05:04:20.832Z,7.75
2022-09-11T05:08:37.387Z,8.20
2022-09-11T05:12:54.081Z,7.97
2022-09-11T05:17:08.077Z,8.43
2022-09-11T05:21:28.019Z,8.60
2022-09-11T05:25:41.830Z,8.55
2022-09-11T05:29:56.917Z,7.87
2022-09-11T05:34:11.073Z,8.75
2022-09-11T05:38:24.889Z,8.02
2022-09-11T05:42:42.621Z,8.90
2022-09-11T05:46:58.473Z,9.15
2022-09-11T05:51:14.660Z,9.82
2022-09-11T05:55:28.464Z,9.53
2022-09-11T05:59:42.786Z,10.05
2022-09-11T06:03:58.353Z,10.77
2022-09-11T06:08:13.713Z,10.07
2022-09-11T06:12:28.374Z,9.80
2022-09-11T06:16:44.436Z,11.80
2022-09-11T06:21:07.079Z,12.93
2022-09-11T06:25:27.744Z,12.70
2022-09-11T06:29:42.086Z,12.75
2022-09-11T06:33:56.361Z,12.57
2022-09-11T06:38:11.598Z,13.60
2022-09-11T06:42:26.259Z,14.18
2022-09-11T06:46:40.640Z,13.30
2022-09-11T06:50:57.234Z,13.02
2022-09-11T06:55:14.562Z,12.37
2022-09-11T06:59:34.927Z,14.02
2022-09-11T07:03:51.008Z,13.38
2022-09-11T07:08:06.641Z,12.63
2022-09-11T07:12:25.192Z,11.35
2022-09-11T07:16:39.488Z,10.95
2022-09-11T07:20:57.557Z,11.30
2022-09-11T07:25:11.280Z,10.57
2022-09-11T07:29:31.573Z,11.15
2022-09-11T07:33:48.845Z,11.40
2022-09-11T07:38:02.706Z,10.70
2022-09-11T07:42:20.142Z,10.90
2022-09-11T07:46:36.159Z,11.00
2022-09-11T07:50:58.177Z,11.80
2022-09-11T07:55:13.412Z,11.00
2022-09-11T07:59:27.861Z,10.65
2022-09-11T08:03:44.173Z,10.03
2022-09-11T08:08:03.080Z,9.93
2022-09-11T08:12:17.726Z,10.38
2022-09-11T08:16:36.453Z,10.02
2022-09-11T08:20:52.501Z,9.53
2022-09-11T08:25:07.124Z,10.65
2022-09-11T08:29:20.947Z,10.38
2022-09-11T08:33:36.088Z,9.90
2022-09-11T08:37:54.825Z,10.15
2022-09-11T08:42:15.085Z,10.45
2022-09-11T08:46:35.164Z,10.40
2022-09-11T08:50:50.092Z,9.93
2022-09-11T08:55:06.383Z,10.15
2022-09-11T08:59:33.739Z,10.82
2022-09-11T09:04:00.263Z,9.93
2022-09-11T09:08:37.348Z,9.20
2022-09-11T09:13:04.831Z,7.68
2022-09-11T09:17:22.760Z,7.50
2022-09-11T09:21:45.407Z,7.15
2022-09-11T09:25:59.223Z,7.30
2022-09-11T09:30:18.197Z,6.83
2022-09-11T09:34:35.048Z,6.82
2022-09-11T09:38:50.209Z,7.60
2022-09-11T09:43:40.320Z,7.82
2022-09-11T09:47:55.375Z,7.10
2022-09-11T09:52:18.227Z,7.28
2022-09-11T09:56:34.958Z,7.22
2022-09-11T10:00:48.642Z,7.90
2022-09-11T10:05:18.084Z,10.30
2022-09-11T10:09:32.311Z,8.30
2022-09-11T10:13:55.577Z,8.47
2022-09-11T10:18:33.946Z,8.95
2022-09-11T10:22:49.567Z,8.63
2022-09-11T10:27:04.967Z,8.00
2022-09-11T10:31:20.630Z,7.80
2022-09-11T10:35:36.526Z,8.20
2022-09-11T10:39:55.217Z,8.80
2022-09-11T10:44:16.019Z,9.73
2022-09-11T10:48:29.887Z,10.52
2022-09-11T10:52:54.381Z,11.27
2022-09-11T10:57:17.980Z,11.87
2022-09-11T11:01:31.646Z,11.60
2022-09-11T11:05:54.695Z,11.30
2022-09-11T11:10:21.978Z,11.25
2022-09-11T11:15:09.511Z,11.27
2022-09-11T11:19:36.977Z,12.07
2022-09-11T11:24:05.772Z,12.88
2022-09-11T11:28:32.413Z,13.73
2022-09-11T11:33:01.148Z,14.23
2022-09-11T11:37:21.327Z,14.02
2022-09-11T11:41:44.549Z,12.87
2022-09-11T11:46:04.614Z,13.80
2022-09-11T11:50:31.115Z,14.93
2022-09-11T11:54:52.305Z,15.52
2022-09-11T11:59:12.980Z,15.53
2022-09-11T12:03:34.342Z,14.20
2022-09-11T12:07:49.555Z,15.02
2022-09-11T12:12:08.007Z,15.70
2022-09-11T12:16:27.913Z,14.95
2022-09-11T12:20:43.086Z,14.25
2022-09-11T12:24:59.779Z,13.97
2022-09-11T12:29:52.722Z,14.90
2022-09-11T12:34:17.408Z,13.35
2022-09-11T12:38:38.115Z,12.55
2022-09-11T12:43:27.705Z,12.13
2022-09-11T12:47:41.807Z,13.02
2022-09-11T12:51:58.497Z,10.60
2022-09-11T12:56:19.359Z,9.77
2022-09-11T13:00:39.924Z,9.98
2022-09-11T13:04:54.878Z,9.77
2022-09-11T13:09:18.246Z,9.73
2022-09-11T13:13:45.167Z,8.75
2022-09-11T13:18:00.415Z,8.65
2022-09-11T13:22:25.645Z,9.50
2022-09-11T13:26:43.121Z,8.77
2022-09-11T13:31:00.554Z,8.32
2022-09-11T13:35:17.928Z,8.75
2022-09-11T13:39:42.794Z,8.33
2022-09-11T13:43:58.601Z,8.55
2022-09-11T13:48:22.931Z,7.93
2022-09-11T13:52:38.293Z,8.40
2022-09-11T13:57:12.875Z,7.63
2022-09-11T14:01:26.746Z,7.55
2022-09-11T14:05:50.430Z,8.25
2022-09-11T14:10:08.249Z,8.07
2022-09-11T14:14:25.395Z,7.95
2022-09-11T14:18:45.458Z,7.82
2022-09-11T14:23:04.395Z,7.83
2022-09-11T14:27:38.476Z,7.65
2022-09-11T14:31:53.782Z,7.10
2022-09-11T14:36:15.076Z,6.73
2022-09-11T14:40:28.827Z,6.95
2022-09-11T14:44:44.328Z,6.97
2022-09-11T14:48:58.102Z,6.78
2022-09-11T14:53:18.751Z,6.17
2022-09-11T14:57:35.173Z,6.50
2022-09-11T15:01:52.148Z,7.45
2022-09-11T15:06:06.404Z,6.07
2022-09-11T15:10:20.346Z,5.95
2022-09-11T15:14:55.111Z,5.63
2022-09-11T15:19:09.526Z,5.50
2022-09-11T15:23:23.682Z,6.05
2022-09-11T15:27:37.406Z,5.82
2022-09-11T15:31:51.379Z,5.55
2022-09-11T15:36:06.982Z,5.50
2022-09-11T15:40:21.252Z,6.15
2022-09-11T15:44:36.650Z,5.97
2022-09-11T15:48:50.935Z,6.03
2022-09-11T15:53:06.270Z,6.47
2022-09-11T15:57:20.458Z,6.60
2022-09-11T16:01:37.459Z,6.43
2022-09-11T16:05:51.273Z,6.30
2022-09-11T16:10:07.502Z,6.03
2022-09-11T16:14:23.360Z,5.90
2022-09-11T16:18:38.884Z,5.10
2022-09-11T16:22:52.531Z,5.43
2022-09-11T16:27:09.256Z,5.18
2022-09-11T16:31:22.987Z,4.63
2022-09-11T16:35:36.909Z,4.43
2022-09-11T16:39:51.070Z,4.90
2022-09-11T16:44:07.646Z,5.00
2022-09-11T16:48:21.437Z,4.40
2022-09-11T16:52:35.826Z,4.50
2022-09-11T16:56:54.247Z,4.72
2022-09-11T17:01:16.561Z,4.10
2022-09-11T17:05:34.078Z,4.75
2022-09-11T17:09:48.340Z,4.50
2022-09-11T17:14:02.923Z,4.87
2022-09-11T17:18:33.134Z,4.97
2022-09-11T17:23:09.201Z,5.03
2022-09-11T17:27:31.922Z,5.47
2022-09-11T17:32:16.666Z,5.50
2022-09-11T17:36:35.438Z,5.65
2022-09-11T17:40:49.140Z,6.15
2022-09-11T17:45:03.874Z,5.73
2022-09-11T17:49:25.104Z,5.72
2022-09-11T17:53:45.184Z,5.53
2022-09-11T17:58:05.409Z,5.77
2022-09-11T18:02:38.380Z,6.43
2022-09-11T18:06:59.210Z,6.50
2022-09-11T18:11:18.369Z,5.97
2022-09-11T18:15:32.641Z,5.80
2022-09-11T18:19:50.152Z,6.50
2022-09-11T18:24:19.961Z,6.30
2022-09-11T18:28:39.778Z,6.20
2022-09-11T18:32:56.287Z,6.60
2022-09-11T18:37:12.835Z,6.65
2022-09-11T18:41:38.529Z,6.93
2022-09-11T18:45:53.890Z,6.38
2022-09-11T18:50:11.020Z,6.47
2022-09-11T18:54:25.584Z,7.00
2022-09-11T18:58:42.537Z,6.95
2022-09-11T19:02:59.707Z,7.30
2022-09-11T19:07:14.824Z,7.40
2022-09-11T19:11:33.966Z,8.00
2022-09-11T19:15:56.383Z,8.32
2022-09-11T19:20:12.260Z,8.07
2022-09-11T19:24:28.276Z,8.10
2022-09-11T19:28:43.864Z,8.50
2022-09-11T19:32:58.091Z,8.52
2022-09-11T19:37:14.618Z,8.87
2022-09-11T19:41:30.688Z,8.80
2022-09-11T19:45:44.450Z,8.85
2022-09-11T19:50:00.201Z,9.02
2022-09-11T19:54:15.831Z,9.37
2022-09-11T19:58:31.325Z,9.18
2022-09-11T20:02:45.884Z,10.07
2022-09-11T20:07:00.428Z,9.93
2022-09-11T20:11:17.651Z,10.00
2022-09-11T20:15:31.816Z,9.15
2022-09-11T20:19:45.930Z,9.87
2022-09-11T20:24:00.439Z,10.98
2022-09-11T20:28:16.014Z,9.98
2022-09-11T20:32:37.829Z,9.70
2022-09-11T20:36:55.095Z,10.00
2022-09-11T20:41:10.729Z,9.45
2022-09-11T20:45:26.268Z,10.13
2022-09-11T20:49:43.436Z,9.47
2022-09-11T20:53:57.747Z,9.18
2022-09-11T20:58:12.110Z,9.10
2022-09-11T21:02:27.836Z,9.50
2022-09-11T21:06:44.254Z,8.13
2022-09-11T21:11:02.805Z,8.75
2022-09-11T21:15:19.344Z,8.80
2022-09-11T21:19:36.026Z,8.57
2022-09-11T21:23:54.820Z,8.18
2022-09-11T21:28:14.466Z,8.18
2022-09-11T21:32:28.325Z,8.00
2022-09-11T21:36:55.918Z,7.55
2022-09-11T21:41:12.690Z,7.32
2022-09-11T21:45:27.080Z,7.87
2022-09-11T21:49:41.684Z,7.60
2022-09-11T21:53:59.058Z,8.10
2022-09-11T21:58:22.660Z,8.15
2022-09-11T22:02:36.608Z,7.77
2022-09-11T22:06:50.367Z,8.10
2022-09-11T22:11:06.188Z,8.20
2022-09-11T22:15:19.884Z,9.17
2022-09-11T22:19:33.645Z,9.20
2022-09-11T22:23:47.333Z,8.90
2022-09-11T22:28:02.599Z,9.57
2022-09-11T22:32:16.300Z,8.98
2022-09-11T22:36:31.062Z,9.35
2022-09-11T22:40:44.841Z,9.52
2022-09-11T22:44:59.998Z,8.77
2022-09-11T22:49:13.878Z,9.70
2022-09-11T22:53:28.854Z,9.20
2022-09-11T22:57:42.559Z,9.27
2022-09-11T23:01:57.842Z,9.30
2022-09-11T23:06:29.437Z,9.60
2022-09-11T23:10:44.030Z,8.70
2022-09-11T23:14:58.164Z,9.80
2022-09-11T23:19:14.999Z,9.18
2022-09-11T23:23:28.674Z,9.45
2022-09-11T23:27:44.235Z,9.50
2022-09-11T23:31:58.012Z,9.60
2022-09-11T23:36:14.844Z,9.10
2022-09-11T23:40:33.214Z,9.67
2022-09-11T23:44:47.115Z,9.75
2022-09-11T23:49:00.871Z,10.40
2022-09-11T23:53:15.959Z,10.00
2022-09-11T23:57:29.658Z,9.60
